Pagina principale
METAR-TAF:

METAR-TAF

Aeroporti :

Seghedino, Ungheria

latitudine: 46-15N, longitudine: 020-06E, altezza: 82 m

Osservazione

Il bollettino è stato emesso 43 minuti fa, alle 18:15 UTC
Vento 5 kt da est/nord-est
Temperature 0°C
Umidità 100%
Pressione 1020 hPa
Visibilità: 1800 m
Cielo coperto ad un'altezza di 1600 ft
neve debole

METAR: LHUD 191815Z 07005KT 1800 -SN OVC016 00/M00 Q1020

Ora: 19:58 (18:58 UTC)


TAF: mancante

Osservazioni e previsioni meteorologiche di più di 4000 aeroporti (messaggi METAR e TAF).

Le stazioni disponibili sono rappresentate dai dischi gialli e rossi sulla carta.

Puntare il mouse per vedere il nome della stazione.

Clicca sopra per visualizzare le osservazioni e previsioni meteorologiche.

Per cambiare la mappa : fare clic sui pulsanti verdi con una croce nera per ingrandire, il pulsante verde con un trattino per diminuire, o sulla freccia verde per le mappe adiacenti.


METAR-TAF: